createdAt,value
2019-05-05T00:01:51.953Z,59.00
2019-05-05T00:04:31.055Z,58.90
2019-05-05T00:06:59.329Z,58.70
2019-05-05T00:09:27.850Z,58.70
2019-05-05T00:12:14.620Z,58.80
2019-05-05T00:14:54.704Z,58.90
2019-05-05T00:17:27.802Z,58.90
2019-05-05T00:19:56.070Z,58.90
2019-05-05T00:22:24.605Z,58.90
2019-05-05T00:24:54.627Z,58.90
2019-05-05T00:27:25.276Z,58.90
2019-05-05T00:29:54.717Z,58.90
2019-05-05T00:32:24.528Z,58.80
2019-05-05T00:34:55.066Z,58.70
2019-05-05T00:37:25.464Z,58.70
2019-05-05T00:39:54.322Z,58.70
2019-05-05T00:42:24.607Z,58.70
2019-05-05T00:44:54.771Z,58.70
2019-05-05T00:47:34.431Z,58.80
2019-05-05T00:50:05.287Z,58.70
2019-05-05T00:52:35.182Z,58.60
2019-05-05T00:55:07.411Z,58.50
2019-05-05T00:57:35.751Z,58.50
2019-05-05T01:00:08.954Z,58.50
2019-05-05T01:02:41.582Z,58.50
2019-05-05T01:05:26.510Z,58.50
2019-05-05T01:07:54.840Z,58.40
2019-05-05T01:10:24.818Z,58.30
2019-05-05T01:12:54.457Z,58.30
2019-05-05T01:15:25.277Z,58.30
2019-05-05T01:17:55.154Z,58.20
2019-05-05T01:20:24.977Z,58.20
2019-05-05T01:22:55.164Z,58.10
2019-05-05T01:25:25.286Z,58.10
2019-05-05T01:27:54.578Z,58.00
2019-05-05T01:30:25.127Z,58.00
2019-05-05T01:33:06.944Z,58.00
2019-05-05T01:35:35.289Z,58.00
2019-05-05T01:38:11.152Z,58.00
2019-05-05T01:40:41.067Z,58.00
2019-05-05T01:43:09.344Z,57.90
2019-05-05T01:45:37.613Z,58.00
2019-05-05T01:48:05.898Z,57.80
2019-05-05T01:50:34.915Z,57.90
2019-05-05T01:53:04.788Z,57.90
2019-05-05T01:55:34.704Z,57.90
2019-05-05T01:58:04.767Z,58.00
2019-05-05T02:00:34.778Z,58.00
2019-05-05T02:03:04.513Z,58.00
2019-05-05T02:05:34.850Z,58.10
2019-05-05T02:08:04.943Z,58.20
2019-05-05T02:10:34.885Z,58.20
2019-05-05T02:13:04.614Z,58.10
2019-05-05T02:15:34.385Z,58.10
2019-05-05T02:18:04.579Z,58.00
2019-05-05T02:20:45.159Z,58.00
2019-05-05T02:23:15.345Z,58.00
2019-05-05T02:25:44.777Z,58.00
2019-05-05T02:28:14.941Z,58.00
2019-05-05T02:31:01.163Z,58.00
2019-05-05T02:33:29.508Z,58.00
2019-05-05T02:35:57.815Z,57.90
2019-05-05T02:38:26.443Z,58.00
2019-05-05T02:40:55.138Z,57.90
2019-05-05T02:43:25.012Z,57.90
2019-05-05T02:46:16.647Z,57.90
2019-05-05T02:48:45.102Z,57.90
2019-05-05T02:51:15.230Z,57.90
2019-05-05T02:53:46.689Z,57.90
2019-05-05T02:56:16.629Z,58.30
2019-05-05T02:58:44.903Z,57.80
2019-05-05T03:01:20.784Z,57.80
2019-05-05T03:03:49.057Z,57.80
2019-05-05T03:06:17.331Z,57.80
2019-05-05T03:08:45.625Z,57.80
2019-05-05T03:11:14.487Z,57.80
2019-05-05T03:13:44.199Z,57.70
2019-05-05T03:16:17.875Z,57.70
2019-05-05T03:18:46.166Z,57.70
2019-05-05T03:21:14.578Z,57.70
2019-05-05T03:23:44.056Z,57.60
2019-05-05T03:26:14.089Z,57.60
2019-05-05T03:28:49.799Z,57.60
2019-05-05T03:31:18.074Z,57.50
2019-05-05T03:33:46.432Z,57.50
2019-05-05T03:36:14.704Z,57.50
2019-05-05T03:38:44.408Z,57.50
2019-05-05T03:41:14.540Z,57.50
2019-05-05T03:44:00.758Z,57.50
2019-05-05T03:46:30.301Z,57.50
2019-05-05T03:48:58.601Z,57.30
2019-05-05T03:51:26.941Z,57.30
2019-05-05T03:53:55.301Z,57.30
2019-05-05T03:56:24.175Z,57.30
2019-05-05T03:58:54.239Z,57.30
2019-05-05T04:01:54.675Z,57.30
2019-05-05T04:04:31.217Z,57.30
2019-05-05T04:07:01.131Z,57.20
2019-05-05T04:09:29.502Z,57.20
2019-05-05T04:11:57.849Z,57.20
2019-05-05T04:14:26.114Z,57.20
2019-05-05T04:16:56.043Z,57.30
2019-05-05T04:19:25.950Z,57.20
2019-05-05T04:21:54.314Z,57.30
2019-05-05T04:24:23.890Z,57.20
2019-05-05T04:26:54.461Z,57.30
2019-05-05T04:29:24.274Z,57.10
2019-05-05T04:31:54.027Z,57.10
2019-05-05T04:34:24.078Z,57.00
2019-05-05T04:36:54.405Z,57.00
2019-05-05T04:39:23.651Z,57.00
2019-05-05T04:41:54.353Z,57.00
2019-05-05T04:44:23.680Z,57.00
2019-05-05T04:46:54.622Z,56.90
2019-05-05T04:49:33.999Z,56.90
2019-05-05T04:52:04.354Z,56.80
2019-05-05T04:54:34.270Z,56.80
2019-05-05T04:57:04.439Z,56.80
2019-05-05T04:59:34.005Z,56.80
2019-05-05T05:02:04.248Z,56.80
2019-05-05T05:04:34.239Z,56.70
2019-05-05T05:07:04.738Z,56.70
2019-05-05T05:09:34.142Z,56.70
2019-05-05T05:12:04.052Z,56.70
2019-05-05T05:14:33.753Z,56.70
2019-05-05T05:17:03.858Z,56.70
2019-05-05T05:19:33.532Z,56.70
2019-05-05T05:22:02.958Z,56.70
2019-05-05T05:24:34.147Z,56.70
2019-05-05T05:27:01.900Z,56.70
2019-05-05T05:29:30.246Z,56.70
2019-05-05T05:31:58.536Z,56.70
2019-05-05T05:34:26.833Z,56.60
2019-05-05T05:36:55.110Z,56.60
2019-05-05T05:39:25.126Z,56.60
2019-05-05T05:41:54.084Z,56.60
2019-05-05T05:44:33.837Z,56.50
2019-05-05T05:47:14.074Z,56.50
2019-05-05T05:49:44.123Z,56.50
2019-05-05T05:52:18.714Z,56.40
2019-05-05T05:54:44.211Z,56.40
2019-05-05T05:57:13.641Z,56.40
2019-05-05T05:59:44.329Z,56.40
2019-05-05T06:02:15.205Z,56.40
2019-05-05T06:04:42.204Z,56.30
2019-05-05T06:07:10.480Z,56.40
2019-05-05T06:09:38.770Z,56.40
2019-05-05T06:12:07.057Z,56.40
2019-05-05T06:14:35.363Z,56.30
2019-05-05T06:17:04.260Z,56.30
2019-05-05T06:19:33.798Z,56.40
2019-05-05T06:22:03.510Z,56.40
2019-05-05T06:24:34.388Z,56.40
2019-05-05T06:27:03.741Z,56.40
2019-05-05T06:29:34.347Z,56.30
2019-05-05T06:32:04.006Z,56.40
2019-05-05T06:34:33.828Z,56.40
2019-05-05T06:37:04.066Z,56.80
2019-05-05T06:39:33.464Z,56.30
2019-05-05T06:42:04.518Z,56.30
2019-05-05T06:44:34.918Z,56.40
2019-05-05T06:47:13.972Z,56.50
2019-05-05T06:49:43.731Z,56.70
2019-05-05T06:52:14.137Z,56.90
2019-05-05T06:54:43.833Z,57.00
2019-05-05T06:57:13.676Z,57.00
2019-05-05T06:59:43.926Z,57.10
2019-05-05T07:02:14.368Z,57.10
2019-05-05T07:04:44.315Z,57.30
2019-05-05T07:07:14.374Z,57.30
2019-05-05T07:09:44.270Z,57.40
2019-05-05T07:12:13.802Z,57.50
2019-05-05T07:14:44.356Z,57.50
2019-05-05T07:17:14.097Z,57.60
2019-05-05T07:19:44.716Z,58.00
2019-05-05T07:22:14.036Z,58.30
2019-05-05T07:24:43.640Z,58.50
2019-05-05T07:27:13.836Z,58.50
2019-05-05T07:29:43.701Z,58.60
2019-05-05T07:32:14.139Z,58.60
2019-05-05T07:34:46.723Z,58.70
2019-05-05T07:37:14.994Z,58.80
2019-05-05T07:39:44.633Z,59.40
2019-05-05T07:42:13.734Z,58.90
2019-05-05T07:44:44.105Z,58.90
2019-05-05T07:47:14.474Z,59.00
2019-05-05T07:49:44.120Z,59.10
2019-05-05T07:52:14.956Z,59.10
2019-05-05T07:54:43.603Z,59.30
2019-05-05T07:57:14.509Z,59.60
2019-05-05T07:59:44.545Z,59.50
2019-05-05T08:02:14.516Z,59.40
2019-05-05T08:04:43.775Z,59.50
2019-05-05T08:07:14.586Z,59.50
2019-05-05T08:09:44.438Z,59.60
2019-05-05T08:12:13.754Z,59.70
2019-05-05T08:14:44.416Z,59.60
2019-05-05T08:17:34.118Z,59.60
2019-05-05T08:20:19.557Z,59.50
2019-05-05T08:22:47.870Z,59.50
2019-05-05T08:25:17.870Z,59.60
2019-05-05T08:27:47.790Z,59.60
2019-05-05T08:30:29.663Z,59.70
2019-05-05T08:32:58.111Z,59.70
2019-05-05T08:35:26.474Z,59.50
2019-05-05T08:37:54.746Z,59.40
2019-05-05T08:40:23.966Z,59.50
2019-05-05T08:42:53.874Z,59.50
2019-05-05T08:45:26.423Z,59.70
2019-05-05T08:47:54.207Z,59.60
2019-05-05T08:50:26.797Z,59.60
2019-05-05T08:52:53.733Z,59.50
2019-05-05T08:55:24.460Z,59.40
2019-05-05T08:57:53.999Z,59.50
2019-05-05T09:00:24.392Z,59.50
2019-05-05T09:02:54.345Z,59.50
2019-05-05T09:05:23.847Z,59.50
2019-05-05T09:07:54.615Z,59.50
2019-05-05T09:10:23.700Z,59.50
2019-05-05T09:12:54.300Z,59.60
2019-05-05T09:15:24.258Z,59.60
2019-05-05T09:17:54.505Z,59.50
2019-05-05T09:20:24.226Z,59.50
2019-05-05T09:22:53.566Z,59.40
2019-05-05T09:25:26.638Z,59.40
2019-05-05T09:27:56.552Z,59.30
2019-05-05T09:30:40.683Z,59.10
2019-05-05T09:33:09.044Z,59.10
2019-05-05T09:35:37.413Z,59.10
2019-05-05T09:38:05.701Z,59.10
2019-05-05T09:40:39.877Z,59.00
2019-05-05T09:43:08.344Z,59.00
2019-05-05T09:45:38.101Z,58.90
2019-05-05T09:48:06.388Z,58.90
2019-05-05T09:50:35.134Z,58.90
2019-05-05T09:53:04.201Z,58.80
2019-05-05T09:55:33.580Z,58.70
2019-05-05T09:58:02.038Z,58.70
2019-05-05T10:00:33.661Z,58.60
2019-05-05T10:03:03.832Z,58.50
2019-05-05T10:05:34.094Z,58.50
2019-05-05T10:08:03.535Z,58.50
2019-05-05T10:10:33.690Z,58.50
2019-05-05T10:13:04.176Z,58.50
2019-05-05T10:15:32.189Z,58.40
2019-05-05T10:18:00.598Z,58.40
2019-05-05T10:20:28.897Z,58.30
2019-05-05T10:22:57.241Z,58.30
2019-05-05T10:25:34.360Z,58.20
2019-05-05T10:28:04.250Z,58.10
2019-05-05T10:30:32.943Z,58.10
2019-05-05T10:33:03.598Z,58.10
2019-05-05T10:35:31.320Z,58.00
2019-05-05T10:37:59.667Z,57.90
2019-05-05T10:40:29.618Z,57.90
2019-05-05T10:42:57.902Z,57.80
2019-05-05T10:45:26.165Z,57.80
2019-05-05T10:47:54.460Z,57.80
2019-05-05T10:50:24.722Z,57.70
2019-05-05T10:52:53.681Z,57.60
2019-05-05T10:55:23.882Z,57.60
2019-05-05T10:57:54.079Z,57.50
2019-05-05T11:00:40.222Z,57.40
2019-05-05T11:03:08.584Z,57.20
2019-05-05T11:05:36.870Z,57.20
2019-05-05T11:08:05.232Z,57.00
2019-05-05T11:10:34.649Z,57.00
2019-05-05T11:13:03.841Z,57.10
2019-05-05T11:15:33.524Z,57.20
2019-05-05T11:18:04.034Z,57.20
2019-05-05T11:20:33.849Z,57.20
2019-05-05T11:23:02.074Z,57.50
2019-05-05T11:25:30.441Z,57.10
2019-05-05T11:28:00.359Z,57.80
2019-05-05T11:30:41.086Z,57.80
2019-05-05T11:33:27.156Z,58.00
2019-05-05T11:36:13.678Z,58.20
2019-05-05T11:38:44.412Z,58.40
2019-05-05T11:41:14.165Z,58.50
2019-05-05T11:43:42.219Z,58.70
2019-05-05T11:46:11.515Z,58.90
2019-05-05T11:48:39.799Z,59.00
2019-05-05T11:51:08.168Z,59.10
2019-05-05T11:53:38.167Z,59.20
2019-05-05T11:56:06.440Z,59.30
2019-05-05T11:58:34.805Z,59.40
2019-05-05T12:01:03.707Z,59.40
2019-05-05T12:03:34.032Z,59.50
2019-05-05T12:06:04.011Z,59.50
2019-05-05T12:08:34.466Z,59.60
2019-05-05T12:11:04.662Z,59.70
2019-05-05T12:13:33.283Z,59.70
2019-05-05T12:16:04.623Z,59.80
2019-05-05T12:18:34.248Z,59.90
2019-05-05T12:21:05.190Z,59.90
2019-05-05T12:23:33.921Z,59.90
2019-05-05T12:26:07.249Z,59.90
2019-05-05T12:28:37.171Z,59.90
2019-05-05T12:31:14.162Z,59.90
2019-05-05T12:33:44.183Z,59.90
2019-05-05T12:36:14.918Z,59.90
2019-05-05T12:38:43.901Z,59.90
2019-05-05T12:41:14.620Z,59.90
2019-05-05T12:43:44.159Z,59.90
2019-05-05T12:46:17.243Z,59.80
2019-05-05T12:48:47.169Z,59.80
2019-05-05T12:51:15.535Z,59.70
2019-05-05T12:53:43.907Z,59.70
2019-05-05T12:56:14.466Z,59.80
2019-05-05T12:58:44.015Z,59.70
2019-05-05T13:01:14.363Z,59.70
2019-05-05T13:03:43.701Z,59.60
2019-05-05T13:06:14.479Z,59.60
2019-05-05T13:08:44.376Z,59.60
2019-05-05T13:11:12.443Z,59.60
2019-05-05T13:13:40.822Z,59.60
2019-05-05T13:16:09.099Z,59.60
2019-05-05T13:18:37.394Z,59.70
2019-05-05T13:21:13.339Z,59.60
2019-05-05T13:23:49.235Z,59.60
2019-05-05T13:26:19.150Z,59.60
2019-05-05T13:28:47.513Z,59.70
2019-05-05T13:31:15.794Z,60.30
2019-05-05T13:33:44.295Z,59.90
2019-05-05T13:36:13.744Z,59.90
2019-05-05T13:38:43.828Z,60.00
2019-05-05T13:41:12.587Z,60.00
2019-05-05T13:43:41.070Z,60.00
2019-05-05T13:46:10.982Z,60.00
2019-05-05T13:48:39.275Z,60.10
2019-05-05T13:51:09.280Z,60.00
2019-05-05T13:53:37.549Z,59.90
2019-05-05T13:56:12.015Z,59.90
2019-05-05T13:58:35.942Z,59.90
2019-05-05T14:01:04.224Z,59.80
2019-05-05T14:03:34.184Z,59.70
2019-05-05T14:06:04.571Z,59.70
2019-05-05T14:08:36.035Z,59.70
2019-05-05T14:11:03.627Z,59.60
2019-05-05T14:13:34.061Z,59.70
2019-05-05T14:16:03.875Z,59.60
2019-05-05T14:18:32.076Z,59.60
2019-05-05T14:21:00.431Z,59.50
2019-05-05T14:23:30.292Z,59.40
2019-05-05T14:25:58.570Z,59.50
2019-05-05T14:28:26.864Z,59.40
2019-05-05T14:30:59.834Z,59.40
2019-05-05T14:33:29.840Z,59.30
2019-05-05T14:35:59.776Z,59.20
2019-05-05T14:38:44.854Z,59.10
2019-05-05T14:41:13.601Z,59.10
2019-05-05T14:43:43.770Z,59.10
2019-05-05T14:46:14.378Z,59.00
2019-05-05T14:48:43.967Z,59.00
2019-05-05T14:51:14.401Z,59.00
2019-05-05T14:53:43.719Z,59.00
2019-05-05T14:56:13.552Z,59.00
2019-05-05T14:58:43.853Z,59.00
2019-05-05T15:01:14.274Z,59.10
2019-05-05T15:03:44.339Z,59.20
2019-05-05T15:06:19.893Z,59.20
2019-05-05T15:08:55.783Z,59.10
2019-05-05T15:11:41.773Z,59.10
2019-05-05T15:14:10.079Z,59.10
2019-05-05T15:16:38.351Z,59.20
2019-05-05T15:19:06.652Z,59.30
2019-05-05T15:21:34.939Z,59.40
2019-05-05T15:24:03.278Z,59.40
2019-05-05T15:26:31.573Z,59.50
2019-05-05T15:29:01.722Z,59.50
2019-05-05T15:31:29.882Z,59.50
2019-05-05T15:33:58.245Z,59.60
2019-05-05T15:36:26.607Z,59.60
2019-05-05T15:38:55.270Z,59.60
2019-05-05T15:41:24.014Z,59.60
2019-05-05T15:43:54.327Z,59.70
2019-05-05T15:46:24.367Z,59.70
2019-05-05T15:48:54.547Z,59.70
2019-05-05T15:51:23.678Z,59.70
2019-05-05T15:53:54.253Z,59.70
2019-05-05T15:56:24.365Z,59.70
2019-05-05T15:58:52.590Z,59.70
2019-05-05T16:01:20.858Z,59.70
2019-05-05T16:03:49.219Z,59.60
2019-05-05T16:06:17.501Z,59.60
2019-05-05T16:08:45.791Z,59.50
2019-05-05T16:11:14.292Z,59.30
2019-05-05T16:13:44.011Z,59.30
2019-05-05T16:16:20.069Z,59.30
2019-05-05T16:19:05.392Z,59.80
2019-05-05T16:21:26.320Z,59.30
2019-05-05T16:23:56.068Z,59.30
2019-05-05T16:26:24.631Z,59.30
2019-05-05T16:28:55.188Z,59.40
2019-05-05T16:31:23.647Z,59.40
2019-05-05T16:33:52.390Z,59.40
2019-05-05T16:36:20.673Z,59.40
2019-05-05T16:38:49.031Z,59.40
2019-05-05T16:41:17.321Z,59.40
2019-05-05T16:43:45.589Z,59.30
2019-05-05T16:46:16.709Z,59.20
2019-05-05T16:48:44.065Z,59.20
2019-05-05T16:51:14.050Z,59.20
2019-05-05T16:53:42.630Z,59.20
2019-05-05T16:56:13.956Z,59.30
2019-05-05T16:58:44.893Z,59.50
2019-05-05T17:01:14.683Z,60.30
2019-05-05T17:03:45.388Z,59.70
2019-05-05T17:06:14.033Z,59.90
2019-05-05T17:08:44.483Z,60.20
2019-05-05T17:11:14.785Z,60.50
2019-05-05T17:13:44.563Z,60.60
2019-05-05T17:16:17.142Z,60.90
2019-05-05T17:18:47.065Z,61.10
2019-05-05T17:21:16.997Z,61.30
2019-05-05T17:23:45.365Z,61.70
2019-05-05T17:26:14.251Z,61.90
2019-05-05T17:28:44.396Z,62.20
2019-05-05T17:31:13.061Z,62.50
2019-05-05T17:33:41.378Z,62.70
2019-05-05T17:36:09.658Z,63.00
2019-05-05T17:38:37.929Z,63.10
2019-05-05T17:41:20.011Z,63.20
2019-05-05T17:43:50.002Z,63.40
2019-05-05T17:46:33.610Z,63.40
2019-05-05T17:49:04.668Z,63.50
2019-05-05T17:51:35.074Z,63.70
2019-05-05T17:54:24.213Z,63.70
2019-05-05T17:56:55.036Z,63.70
2019-05-05T17:59:23.673Z,63.80
2019-05-05T18:01:53.835Z,63.70
2019-05-05T18:04:22.152Z,63.80
2019-05-05T18:06:54.888Z,63.60
2019-05-05T18:09:40.902Z,63.60
2019-05-05T18:12:13.971Z,63.70
2019-05-05T18:14:44.375Z,63.80
2019-05-05T18:17:13.684Z,63.80
2019-05-05T18:19:43.570Z,63.80
2019-05-05T18:22:13.891Z,63.70
2019-05-05T18:24:42.158Z,63.60
2019-05-05T18:27:10.466Z,63.60
2019-05-05T18:29:38.750Z,63.60
2019-05-05T18:32:07.033Z,63.60
2019-05-05T18:34:35.323Z,63.60
2019-05-05T18:37:03.808Z,63.50
2019-05-05T18:39:34.256Z,63.50
2019-05-05T18:42:16.362Z,63.30
2019-05-05T18:44:55.111Z,63.10
2019-05-05T18:47:25.093Z,62.90
2019-05-05T18:49:53.958Z,62.70
2019-05-05T18:52:24.559Z,62.70
2019-05-05T18:54:54.428Z,62.70
2019-05-05T18:57:24.709Z,62.70
2019-05-05T18:59:54.266Z,62.70
2019-05-05T19:02:24.896Z,62.70
2019-05-05T19:04:54.814Z,62.60
2019-05-05T19:07:36.611Z,62.70
2019-05-05T19:10:07.129Z,62.50
2019-05-05T19:12:35.503Z,62.60
2019-05-05T19:15:05.946Z,62.60
2019-05-05T19:17:34.581Z,62.60
2019-05-05T19:20:06.274Z,62.60
2019-05-05T19:22:36.143Z,62.60
2019-05-05T19:25:14.936Z,62.30
2019-05-05T19:27:47.477Z,62.10
2019-05-05T19:30:16.292Z,61.90
2019-05-05T19:32:44.594Z,61.90
2019-05-05T19:35:12.934Z,61.80
2019-05-05T19:37:41.233Z,61.80
2019-05-05T19:40:09.579Z,61.80
2019-05-05T19:42:37.873Z,61.80
2019-05-05T19:45:08.012Z,61.70
2019-05-05T19:47:36.362Z,62.50
2019-05-05T19:50:09.597Z,61.50
2019-05-05T19:52:37.890Z,61.50
2019-05-05T19:55:07.026Z,62.20
2019-05-05T19:57:36.115Z,61.30
2019-05-05T20:00:06.171Z,61.30
2019-05-05T20:02:34.487Z,61.10
2019-05-05T20:05:04.271Z,61.00
2019-05-05T20:07:32.908Z,61.00
2019-05-05T20:10:01.215Z,61.00
2019-05-05T20:12:29.488Z,60.80
2019-05-05T20:14:59.063Z,60.90
2019-05-05T20:17:33.576Z,60.80
2019-05-05T20:20:01.686Z,60.80
2019-05-05T20:22:30.041Z,60.80
2019-05-05T20:24:58.325Z,60.80
2019-05-05T20:27:26.684Z,60.90
2019-05-05T20:29:55.013Z,60.80
2019-05-05T20:32:24.961Z,60.70
2019-05-05T20:34:54.950Z,60.60
2019-05-05T20:37:27.461Z,60.70
2019-05-05T20:39:56.702Z,60.70
2019-05-05T20:42:25.002Z,60.70
2019-05-05T20:44:54.451Z,60.50
2019-05-05T20:47:23.713Z,60.50
2019-05-05T20:49:53.885Z,60.30
2019-05-05T20:52:23.693Z,60.10
2019-05-05T20:54:53.755Z,59.90
2019-05-05T20:57:22.271Z,59.80
2019-05-05T20:59:50.562Z,59.70
2019-05-05T21:02:18.832Z,59.60
2019-05-05T21:04:47.201Z,59.50
2019-05-05T21:07:15.495Z,59.40
2019-05-05T21:09:43.782Z,59.30
2019-05-05T21:12:13.835Z,59.20
2019-05-05T21:14:44.473Z,59.20
2019-05-05T21:17:13.667Z,59.20
2019-05-05T21:19:42.202Z,59.20
2019-05-05T21:22:30.454Z,59.20
2019-05-05T21:24:59.285Z,59.30
2019-05-05T21:27:27.555Z,59.20
2019-05-05T21:29:55.856Z,59.20
2019-05-05T21:32:25.385Z,59.10
2019-05-05T21:34:54.081Z,59.10
2019-05-05T21:37:22.375Z,59.20
2019-05-05T21:39:50.676Z,59.10
2019-05-05T21:42:19.027Z,59.20
2019-05-05T21:44:47.308Z,59.20
2019-05-05T21:47:15.613Z,59.10
2019-05-05T21:49:43.951Z,59.10
2019-05-05T21:52:14.337Z,59.10
2019-05-05T21:54:44.357Z,59.10
2019-05-05T21:57:20.054Z,59.10
2019-05-05T21:59:55.723Z,59.10
2019-05-05T22:02:18.423Z,59.10
2019-05-05T22:04:46.707Z,59.10
2019-05-05T22:07:14.993Z,59.10
2019-05-05T22:09:43.278Z,59.10
2019-05-05T22:12:13.403Z,59.10
2019-05-05T22:14:43.410Z,59.00
2019-05-05T22:17:11.610Z,58.90
2019-05-05T22:19:54.166Z,59.30
2019-05-05T22:22:24.531Z,58.80
2019-05-05T22:24:54.059Z,58.80
2019-05-05T22:27:23.795Z,58.80
2019-05-05T22:29:54.105Z,58.80
2019-05-05T22:32:24.792Z,58.80
2019-05-05T22:34:52.414Z,58.60
2019-05-05T22:37:20.679Z,58.60
2019-05-05T22:39:48.974Z,58.60
2019-05-05T22:42:17.248Z,58.60
2019-05-05T22:44:45.543Z,58.60
2019-05-05T22:47:13.993Z,58.40
2019-05-05T22:49:44.199Z,58.50
2019-05-05T22:52:14.324Z,58.40
2019-05-05T22:54:44.279Z,58.40
2019-05-05T22:57:14.002Z,58.40
2019-05-05T23:00:25.289Z,58.30
2019-05-05T23:02:44.099Z,58.30
2019-05-05T23:05:17.168Z,58.30
2019-05-05T23:07:45.438Z,58.20
2019-05-05T23:10:14.124Z,58.20
2019-05-05T23:12:43.970Z,58.20
2019-05-05T23:15:14.415Z,58.20
2019-05-05T23:17:44.050Z,58.20
2019-05-05T23:20:24.616Z,58.20
2019-05-05T23:22:58.154Z,58.20
2019-05-05T23:25:28.057Z,58.10
2019-05-05T23:27:56.342Z,58.10
2019-05-05T23:30:38.642Z,58.10
2019-05-05T23:32:55.281Z,58.10
2019-05-05T23:35:24.069Z,58.10
2019-05-05T23:37:52.601Z,58.00
2019-05-05T23:40:24.487Z,58.00
2019-05-05T23:42:54.134Z,58.00
2019-05-05T23:45:24.650Z,57.90
2019-05-05T23:47:54.526Z,57.90
2019-05-05T23:50:23.134Z,57.80
2019-05-05T23:52:51.439Z,57.80
2019-05-05T23:55:19.785Z,57.80
2019-05-05T23:57:48.128Z,57.80
